Meteo Giornale » Osservazioni meteo Italia » Napoli-Capodichino

ore: 18:20 - Osservazioni Meteo Napoli-Capodichino
Lat. 40° 51' N Lon. 14° 18' E Alt. 88 metri s.l.m.

sereno Europe/Rome

27 °C

Sereno

Temp. 24 Ore

25 °C

31 °C

Nord-Ovest

9.3 Km/h

Dew point 17 °C

Umidità 54 %

Visibilità  10 Km

Il sole sorge alle ore 05:58

Il sole tramonta alle ore 20:19

Data e Ora Cielo e Fenomeni T °C DP °C Um. % Pres. hPa Vis. km Vento km/h
Oggi h: 18:20 sereno Sereno 27 17 54 1015 10 NO 9.3
Oggi h: 17:50 sereno Sereno 27 16 50 1015 10 N/NO 13
Oggi h: 17:20 sereno Sereno 28 16 48 1015 10 NO 18.5
Oggi h: 16:50 sereno Sereno 29 12 35 1015 10 N/NO 16.7
Oggi h: 16:20 sereno Sereno 30 8 25 1015 10 O/NO 14.8
Oggi h: 15:50 sereno Sereno 29 13 37 1015 10 O 13
Oggi h: 15:20 sereno Sereno 30 13 35 1015 10 N 13
Oggi h: 14:50 sereno Sereno 30 9 27 1015 10 NO 14.8
Oggi h: 14:20 sereno Sereno 31 9 25 1015 10 NO 18.5
Oggi h: 13:50 sereno Sereno 31 8 23 1015 10 NO 16.7
Oggi h: 13:20 sereno Sereno 31 7 22 1015 10 NO 14.8
Oggi h: 12:50 sereno Sereno 30 9 27 1015 10 O/NO 16.7
Oggi h: 12:20 sereno Sereno 30 8 25 1015 10 O/NO 16.7
Oggi h: 11:50 sereno Sereno 29 15 42 1015 10 O/NO 14.8
Oggi h: 11:20 sereno Sereno 29 16 45 1015 10 NO 11.1
Oggi h: 10:50 sereno Sereno 29 14 39 1015 10 N 11.1
Oggi h: 10:20 sereno Sereno 28 15 45 1015 10 O/NO 9.3
Oggi h: 09:50 sereno Sereno 28 16 48 1015 10 O/NO 11.1
Oggi h: 09:20 sereno Sereno 27 16 50 1015 10 N 7.4
Oggi h: 08:50 sereno Sereno 26 16 54 1014 10 N/NO 9.3
Oggi h: 08:20 sereno Sereno 26 17 57 1014 10 NO 7.4
Oggi h: 07:50 sereno Sereno 25 16 57 1014 10 NO 7.4
Oggi h: 07:20 sereno Sereno 25 17 61 1014 10 NO 11.1
Oggi h: 06:50 sereno Sereno 25 17 61 1013 10 NO 11.1
Oggi h: 05:50 sereno Sereno 25 17 61 1013 10 NO 14.8
Oggi h: 05:20 sereno Sereno 25 15 53 1013 10 N/NO 13
Oggi h: 04:50 sereno Sereno 25 14 50 1012 10 NO 14.8
Oggi h: 04:20 sereno Sereno 25 14 50 1012 10 NO 18.5
Oggi h: 03:50 sereno Sereno 25 15 53 1012 10 NO 18.5
Oggi h: 03:20 sereno Sereno 26 15 50 1012 10 NO 20.3
Oggi h: 02:50 sereno Sereno 26 15 50 1012 10 NO 16.7
Oggi h: 02:20 sereno Sereno 26 16 54 1013 10 NO 14.8
Oggi h: 01:50 sereno Sereno 27 18 57 1012 10 NO 16.7
Oggi h: 01:20 sereno Sereno 26 19 65 1012 10 NO 14.8
Oggi h: 00:50 sereno Sereno 27 20 65 1012 10 NO 11.1
Oggi h: 00:20 sereno Sereno 27 23 78 1012 10 O/NO 14.8
Ieri h: 23:50 sereno Sereno 27 23 78 1011 10 O/SO 11.1
Ieri h: 23:20 sereno Sereno 28 22 69 1011 10 SO 7.4
Ieri h: 22:50 sereno Sereno 28 22 69 1011 10 O/SO 9.3
Ieri h: 22:20 sereno Sereno 28 24 78 1011 10 O/SO 13
Ieri h: 21:50 sereno Sereno 28 23 74 1011 10 SO 9.3
Ieri h: 21:20 sereno Sereno 29 22 66 1011 10 SO 7.4
Ieri h: 20:50 sereno Sereno 29 20 58 1011 10 O 14.8
Ieri h: 20:20 sereno Sereno 29 22 66 1010 10 SO 9.3
Ieri h: 19:50 sereno Sereno 30 22 62 1010 10 SO 9.3
Ieri h: 19:20 sereno Sereno 30 22 62 1010 10 SO 13
Ieri h: 18:50 sereno Sereno 31 22 58 1011 10 SO 11.1